sensor_id;sensor_type;location;lat;lon;timestamp;pressure;altitude;pressure_sealevel;temperature;humidity
70952;BME280;67274;55.810;37.376;2023-01-25T00:02:02;101499.00;;;-0.16;78.18
70952;BME280;67274;55.810;37.376;2023-01-25T00:04:28;101548.59;;;0.02;78.20
70952;BME280;67274;55.810;37.376;2023-01-25T00:06:54;101567.63;;;0.23;78.32
70952;BME280;67274;55.810;37.376;2023-01-25T00:09:21;101567.13;;;0.18;77.92
70952;BME280;67274;55.810;37.376;2023-01-25T00:11:48;101512.19;;;-0.13;77.69
70952;BME280;67274;55.810;37.376;2023-01-25T00:14:15;101522.34;;;-0.06;78.15
70952;BME280;67274;55.810;37.376;2023-01-25T00:16:41;101550.38;;;0.14;77.34
70952;BME280;67274;55.810;37.376;2023-01-25T00:19:08;101532.38;;;0.04;78.22
70952;BME280;67274;55.810;37.376;2023-01-25T00:21:35;101552.31;;;0.12;77.68
70952;BME280;67274;55.810;37.376;2023-01-25T00:24:02;101508.72;;;-0.03;77.99
70952;BME280;67274;55.810;37.376;2023-01-25T00:26:29;101542.97;;;0.18;77.97
70952;BME280;67274;55.810;37.376;2023-01-25T00:28:56;101520.69;;;0.05;78.08
70952;BME280;67274;55.810;37.376;2023-01-25T00:31:36;101527.06;;;0.15;78.00
70952;BME280;67274;55.810;37.376;2023-01-25T00:36:57;101513.88;;;0.12;78.02
70952;BME280;67274;55.810;37.376;2023-01-25T00:39:27;101510.31;;;0.00;77.47
70952;BME280;67274;55.810;37.376;2023-01-25T00:41:53;101486.22;;;-0.13;78.25
70952;BME280;67274;55.810;37.376;2023-01-25T00:44:20;101478.63;;;-0.19;77.79
70952;BME280;67274;55.810;37.376;2023-01-25T00:46:46;101518.00;;;0.05;77.41
70952;BME280;67274;55.810;37.376;2023-01-25T00:49:22;101522.50;;;0.04;78.24
70952;BME280;67274;55.810;37.376;2023-01-25T00:51:50;101472.84;;;-0.25;78.12
70952;BME280;67274;55.810;37.376;2023-01-25T00:54:18;101500.19;;;0.04;77.57
70952;BME280;67274;55.810;37.376;2023-01-25T00:56:45;101440.38;;;-0.34;77.99
70952;BME280;67274;55.810;37.376;2023-01-25T00:59:12;101460.59;;;-0.17;77.44
70952;BME280;67274;55.810;37.376;2023-01-25T01:01:40;101461.91;;;-0.22;78.08
70952;BME280;67274;55.810;37.376;2023-01-25T01:04:07;101482.34;;;-0.09;77.80
70952;BME280;67274;55.810;37.376;2023-01-25T01:06:40;101471.22;;;-0.15;78.01
70952;BME280;67274;55.810;37.376;2023-01-25T01:09:11;101496.16;;;-0.02;77.06
70952;BME280;67274;55.810;37.376;2023-01-25T01:11:37;101478.28;;;-0.14;77.18
70952;BME280;67274;55.810;37.376;2023-01-25T01:14:03;101472.16;;;-0.16;76.65
70952;BME280;67274;55.810;37.376;2023-01-25T01:16:31;101455.56;;;-0.21;76.67
70952;BME280;67274;55.810;37.376;2023-01-25T01:18:57;101415.13;;;-0.55;76.52
70952;BME280;67274;55.810;37.376;2023-01-25T01:21:23;101467.03;;;-0.19;76.75
70952;BME280;67274;55.810;37.376;2023-01-25T01:23:50;101391.47;;;-0.61;76.92
70952;BME280;67274;55.810;37.376;2023-01-25T01:26:17;101487.13;;;-0.01;77.01
70952;BME280;67274;55.810;37.376;2023-01-25T01:28:46;101455.09;;;-0.15;76.83
70952;BME280;67274;55.810;37.376;2023-01-25T01:31:16;101451.34;;;-0.13;76.54
70952;BME280;67274;55.810;37.376;2023-01-25T01:33:55;101441.19;;;-0.20;76.36
70952;BME280;67274;55.810;37.376;2023-01-25T01:36:25;101477.59;;;-0.05;76.21
70952;BME280;67274;55.810;37.376;2023-01-25T01:38:52;101473.19;;;-0.06;76.21
70952;BME280;67274;55.810;37.376;2023-01-25T01:41:19;101458.06;;;-0.07;76.67
70952;BME280;67274;55.810;37.376;2023-01-25T01:43:46;101400.94;;;-0.44;76.40
70952;BME280;67274;55.810;37.376;2023-01-25T01:46:27;101430.44;;;-0.20;77.11
70952;BME280;67274;55.810;37.376;2023-01-25T01:49:05;101436.78;;;-0.21;76.81
70952;BME280;67274;55.810;37.376;2023-01-25T01:55:12;101457.25;;;0.04;77.17
70952;BME280;67274;55.810;37.376;2023-01-25T01:57:22;101448.44;;;0.02;76.84
70952;BME280;67274;55.810;37.376;2023-01-25T02:00:04;101443.47;;;-0.03;77.46
70952;BME280;67274;55.810;37.376;2023-01-25T02:02:39;101386.09;;;-0.37;76.72
70952;BME280;67274;55.810;37.376;2023-01-25T02:05:09;101451.28;;;0.00;76.74
70952;BME280;67274;55.810;37.376;2023-01-25T02:07:38;101430.00;;;-0.14;77.61
70952;BME280;67274;55.810;37.376;2023-01-25T02:10:07;101458.47;;;-0.01;77.31
70952;BME280;67274;55.810;37.376;2023-01-25T02:12:35;101426.56;;;-0.16;77.34
70952;BME280;67274;55.810;37.376;2023-01-25T02:15:02;101449.69;;;-0.03;77.49
70952;BME280;67274;55.810;37.376;2023-01-25T02:17:37;101454.66;;;0.02;77.21
70952;BME280;67274;55.810;37.376;2023-01-25T02:22:51;101416.41;;;-0.24;76.75
70952;BME280;67274;55.810;37.376;2023-01-25T02:25:20;101419.94;;;-0.23;77.41
70952;BME280;67274;55.810;37.376;2023-01-25T02:27:59;101431.19;;;-0.18;76.96
70952;BME280;67274;55.810;37.376;2023-01-25T02:30:27;101431.31;;;-0.20;77.78
70952;BME280;67274;55.810;37.376;2023-01-25T02:32:53;101460.41;;;-0.03;77.10
70952;BME280;67274;55.810;37.376;2023-01-25T02:35:35;101462.97;;;-0.01;77.76
70952;BME280;67274;55.810;37.376;2023-01-25T02:38:01;101433.75;;;-0.17;77.33
70952;BME280;67274;55.810;37.376;2023-01-25T02:40:29;101463.84;;;-0.01;77.33
70952;BME280;67274;55.810;37.376;2023-01-25T02:42:56;101434.84;;;-0.19;77.01
70952;BME280;67274;55.810;37.376;2023-01-25T02:45:26;101461.28;;;-0.02;77.72
70952;BME280;67274;55.810;37.376;2023-01-25T02:47:54;101449.00;;;-0.17;77.21
70952;BME280;67274;55.810;37.376;2023-01-25T02:50:20;101407.56;;;-0.37;77.02
70952;BME280;67274;55.810;37.376;2023-01-25T02:52:47;101406.47;;;-0.35;77.60
70952;BME280;67274;55.810;37.376;2023-01-25T02:55:13;101442.44;;;-0.13;77.20
70952;BME280;67274;55.810;37.376;2023-01-25T02:57:41;101471.50;;;0.04;77.12
70952;BME280;67274;55.810;37.376;2023-01-25T03:00:08;101465.19;;;0.05;77.07
70952;BME280;67274;55.810;37.376;2023-01-25T03:02:34;101441.47;;;-0.12;77.56
70952;BME280;67274;55.810;37.376;2023-01-25T03:05:00;101484.06;;;0.04;76.77
70952;BME280;67274;55.810;37.376;2023-01-25T03:07:29;101448.03;;;-0.16;77.21
70952;BME280;67274;55.810;37.376;2023-01-25T03:09:55;101436.09;;;-0.12;77.53
70952;BME280;67274;55.810;37.376;2023-01-25T03:12:21;101440.59;;;-0.13;77.24
70952;BME280;67274;55.810;37.376;2023-01-25T03:14:48;101446.75;;;0.00;76.89
70952;BME280;67274;55.810;37.376;2023-01-25T03:17:14;101402.75;;;-0.21;76.79
70952;BME280;67274;55.810;37.376;2023-01-25T03:19:40;101406.69;;;-0.14;77.07
70952;BME280;67274;55.810;37.376;2023-01-25T03:22:06;101423.31;;;0.03;77.49
70952;BME280;67274;55.810;37.376;2023-01-25T03:24:34;101437.72;;;0.02;77.22
70952;BME280;67274;55.810;37.376;2023-01-25T03:27:01;101409.72;;;-0.18;76.71
70952;BME280;67274;55.810;37.376;2023-01-25T03:30:02;101436.84;;;0.01;77.43
70952;BME280;67274;55.810;37.376;2023-01-25T03:32:31;101391.28;;;-0.23;77.90
70952;BME280;67274;55.810;37.376;2023-01-25T03:35:04;101442.09;;;0.03;77.75
70952;BME280;67274;55.810;37.376;2023-01-25T03:37:30;101425.16;;;0.02;77.13
70952;BME280;67274;55.810;37.376;2023-01-25T03:39:57;101429.06;;;-0.02;77.02
70952;BME280;67274;55.810;37.376;2023-01-25T03:42:23;101395.19;;;-0.27;77.27
70952;BME280;67274;55.810;37.376;2023-01-25T03:44:54;101446.03;;;-0.02;77.47
70952;BME280;67274;55.810;37.376;2023-01-25T03:47:20;101374.00;;;-0.43;76.88
70952;BME280;67274;55.810;37.376;2023-01-25T03:49:46;101373.78;;;-0.40;77.50
70952;BME280;67274;55.810;37.376;2023-01-25T03:52:16;101447.97;;;-0.04;77.75
70952;BME280;67274;55.810;37.376;2023-01-25T03:54:42;101432.78;;;-0.16;77.60
70952;BME280;67274;55.810;37.376;2023-01-25T03:57:09;101445.75;;;-0.10;76.94
70952;BME280;67274;55.810;37.376;2023-01-25T03:59:56;101400.16;;;-0.34;77.30
70952;BME280;67274;55.810;37.376;2023-01-25T04:02:22;101437.94;;;-0.13;77.48
70952;BME280;67274;55.810;37.376;2023-01-25T04:04:48;101400.88;;;-0.31;76.49
70952;BME280;67274;55.810;37.376;2023-01-25T04:07:17;101426.06;;;-0.21;77.22
70952;BME280;67274;55.810;37.376;2023-01-25T04:09:43;101370.75;;;-0.59;76.91
70952;BME280;67274;55.810;37.376;2023-01-25T04:12:10;101432.28;;;-0.21;77.07
70952;BME280;67274;55.810;37.376;2023-01-25T04:14:37;101425.31;;;-0.23;76.49
70952;BME280;67274;55.810;37.376;2023-01-25T04:17:04;101440.44;;;-0.22;76.92
70952;BME280;67274;55.810;37.376;2023-01-25T04:19:35;101434.66;;;-0.29;76.50
70952;BME280;67274;55.810;37.376;2023-01-25T04:22:03;101396.78;;;-0.48;76.77
70952;BME280;67274;55.810;37.376;2023-01-25T04:24:36;101413.03;;;-0.39;76.68
70952;BME280;67274;55.810;37.376;2023-01-25T04:27:03;101433.94;;;-0.31;76.77
70952;BME280;67274;55.810;37.376;2023-01-25T04:29:34;101434.66;;;-0.29;76.57
70952;BME280;67274;55.810;37.376;2023-01-25T04:32:00;101435.63;;;-0.30;76.50
70952;BME280;67274;55.810;37.376;2023-01-25T04:34:27;101434.66;;;-0.29;77.11
70952;BME280;67274;55.810;37.376;2023-01-25T04:36:53;101435.41;;;-0.27;76.53
70952;BME280;67274;55.810;37.376;2023-01-25T04:39:19;101401.28;;;-0.49;76.31
70952;BME280;67274;55.810;37.376;2023-01-25T04:41:46;101443.69;;;-0.30;76.63
70952;BME280;67274;55.810;37.376;2023-01-25T04:44:12;101411.16;;;-0.49;77.16
70952;BME280;67274;55.810;37.376;2023-01-25T04:46:39;101416.41;;;-0.48;76.34
70952;BME280;67274;55.810;37.376;2023-01-25T04:49:05;101452.47;;;-0.28;77.00
70952;BME280;67274;55.810;37.376;2023-01-25T04:51:33;101406.53;;;-0.47;77.33
70952;BME280;67274;55.810;37.376;2023-01-25T04:54:00;101374.09;;;-0.68;76.09
70952;BME280;67274;55.810;37.376;2023-01-25T04:56:27;101372.50;;;-0.71;77.13
70952;BME280;67274;55.810;37.376;2023-01-25T04:58:54;101407.72;;;-0.51;76.22
70952;BME280;67274;55.810;37.376;2023-01-25T05:01:21;101406.88;;;-0.52;76.71
70952;BME280;67274;55.810;37.376;2023-01-25T05:03:48;101370.81;;;-0.72;76.30
70952;BME280;67274;55.810;37.376;2023-01-25T05:06:26;101369.72;;;-0.69;76.57
70952;BME280;67274;55.810;37.376;2023-01-25T05:08:52;101441.75;;;-0.28;76.53
70952;BME280;67274;55.810;37.376;2023-01-25T05:11:19;101411.16;;;-0.49;76.79
70952;BME280;67274;55.810;37.376;2023-01-25T05:14:08;101388.66;;;-0.59;76.61
70952;BME280;67274;55.810;37.376;2023-01-25T05:16:34;101420.34;;;-0.41;77.34
70952;BME280;67274;55.810;37.376;2023-01-25T05:19:01;101400.66;;;-0.52;77.36
70952;BME280;67274;55.810;37.376;2023-01-25T05:22:00;101439.41;;;-0.32;77.07
70952;BME280;67274;55.810;37.376;2023-01-25T05:24:34;101401.00;;;-0.57;76.25
70952;BME280;67274;55.810;37.376;2023-01-25T05:27:03;101357.88;;;-0.90;77.01
70952;BME280;67274;55.810;37.376;2023-01-25T05:29:50;101410.56;;;-0.66;77.40
70952;BME280;67274;55.810;37.376;2023-01-25T05:32:21;101455.75;;;-0.48;77.44
70952;BME280;67274;55.810;37.376;2023-01-25T05:34:48;101423.22;;;-0.68;77.07
70952;BME280;67274;55.810;37.376;2023-01-25T05:37:17;101461.47;;;-0.53;76.65
70952;BME280;67274;55.810;37.376;2023-01-25T05:39:46;101425.16;;;-0.70;76.63
70952;BME280;67274;55.810;37.376;2023-01-25T05:42:14;101402.88;;;-0.83;77.03
70952;BME280;67274;55.810;37.376;2023-01-25T05:44:41;101422.25;;;-0.67;77.28
70952;BME280;67274;55.810;37.376;2023-01-25T05:47:16;101398.69;;;-0.74;77.80
70952;BME280;67274;55.810;37.376;2023-01-25T05:49:42;101408.72;;;-0.65;76.89
70952;BME280;67274;55.810;37.376;2023-01-25T05:52:14;101408.63;;;-0.63;76.88
70952;BME280;67274;55.810;37.376;2023-01-25T05:54:41;101398.34;;;-0.70;76.79
70952;BME280;67274;55.810;37.376;2023-01-25T05:57:09;101393.84;;;-0.69;76.53
70952;BME280;67274;55.810;37.376;2023-01-25T05:59:35;101336.41;;;-1.14;77.56
70952;BME280;67274;55.810;37.376;2023-01-25T06:02:04;101424.59;;;-0.62;76.63
70952;BME280;67274;55.810;37.376;2023-01-25T06:04:31;101440.75;;;-0.51;76.98
70952;BME280;67274;55.810;37.376;2023-01-25T06:06:57;101366.91;;;-0.91;77.37
70952;BME280;67274;55.810;37.376;2023-01-25T06:09:23;101449.44;;;-0.47;77.11
70952;BME280;67274;55.810;37.376;2023-01-25T06:11:50;101376.31;;;-0.86;77.52
70952;BME280;67274;55.810;37.376;2023-01-25T06:14:17;101445.66;;;-0.45;76.97
70952;BME280;67274;55.810;37.376;2023-01-25T06:16:43;101410.34;;;-0.62;76.87
70952;BME280;67274;55.810;37.376;2023-01-25T06:19:27;101392.13;;;-0.70;77.03
70952;BME280;67274;55.810;37.376;2023-01-25T06:22:13;101382.25;;;-0.70;76.62
70952;BME280;67274;55.810;37.376;2023-01-25T06:24:39;101404.63;;;-0.58;77.49
70952;BME280;67274;55.810;37.376;2023-01-25T06:27:05;101348.88;;;-0.89;76.95
70952;BME280;67274;55.810;37.376;2023-01-25T06:29:31;101444.03;;;-0.35;77.42
70952;BME280;67274;55.810;37.376;2023-01-25T06:31:57;101448.31;;;-0.32;76.82
70952;BME280;67274;55.810;37.376;2023-01-25T06:34:24;101453.66;;;-0.32;77.42
70952;BME280;67274;55.810;37.376;2023-01-25T06:36:51;101379.59;;;-0.70;77.18
70952;BME280;67274;55.810;37.376;2023-01-25T06:39:17;101452.59;;;-0.29;77.24
70952;BME280;67274;55.810;37.376;2023-01-25T06:41:43;101423.47;;;-0.47;76.97
70952;BME280;67274;55.810;37.376;2023-01-25T06:44:09;101420.56;;;-0.44;76.75
70952;BME280;67274;55.810;37.376;2023-01-25T06:46:35;101438.56;;;-0.33;76.93
70952;BME280;67274;55.810;37.376;2023-01-25T06:49:01;101448.25;;;-0.19;76.61
70952;BME280;67274;55.810;37.376;2023-01-25T06:51:28;101423.94;;;-0.29;76.10
70952;BME280;67274;55.810;37.376;2023-01-25T06:53:54;101373.25;;;-0.69;76.07
70952;BME280;67274;55.810;37.376;2023-01-25T06:56:21;101425.25;;;-0.35;76.65
70952;BME280;67274;55.810;37.376;2023-01-25T06:58:48;101421.50;;;-0.32;76.91
70952;BME280;67274;55.810;37.376;2023-01-25T07:03:52;101449.28;;;-0.09;76.67
70952;BME280;67274;55.810;37.376;2023-01-25T07:06:18;101440.50;;;-0.11;76.30
70952;BME280;67274;55.810;37.376;2023-01-25T07:08:45;101375.22;;;-0.47;76.28
70952;BME280;67274;55.810;37.376;2023-01-25T07:11:12;101384.97;;;-0.46;75.71
70952;BME280;67274;55.810;37.376;2023-01-25T07:13:43;101449.06;;;-0.06;75.68
70952;BME280;67274;55.810;37.376;2023-01-25T07:16:16;101415.22;;;-0.20;75.94
70952;BME280;67274;55.810;37.376;2023-01-25T07:18:43;101368.66;;;-0.43;76.05
70952;BME280;67274;55.810;37.376;2023-01-25T07:21:14;101429.31;;;-0.05;76.21
70952;BME280;67274;55.810;37.376;2023-01-25T07:23:41;101395.69;;;-0.22;76.59
70952;BME280;67274;55.810;37.376;2023-01-25T07:26:24;101397.16;;;-0.18;76.40
70952;BME280;67274;55.810;37.376;2023-01-25T07:28:51;101404.88;;;-0.13;76.66
70952;BME280;67274;55.810;37.376;2023-01-25T07:31:18;101411.72;;;-0.09;75.98
70952;BME280;67274;55.810;37.376;2023-01-25T07:33:53;101336.69;;;-0.46;76.00
70952;BME280;67274;55.810;37.376;2023-01-25T07:36:19;101428.47;;;0.06;76.63
70952;BME280;67274;55.810;37.376;2023-01-25T07:38:46;101422.88;;;0.09;76.61
70952;BME280;67274;55.810;37.376;2023-01-25T07:45:09;101393.69;;;-0.07;75.70
70952;BME280;67274;55.810;37.376;2023-01-25T07:48:07;101393.69;;;-0.07;76.73
70952;BME280;67274;55.810;37.376;2023-01-25T07:51:01;101438.50;;;0.15;75.86
70952;BME280;67274;55.810;37.376;2023-01-25T07:53:38;101351.00;;;-0.34;75.95
70952;BME280;67274;55.810;37.376;2023-01-25T07:59:20;101393.41;;;-0.15;75.71
70952;BME280;67274;55.810;37.376;2023-01-25T08:01:46;101392.53;;;-0.16;75.86
70952;BME280;67274;55.810;37.376;2023-01-25T08:04:13;101424.56;;;-0.02;75.43
70952;BME280;67274;55.810;37.376;2023-01-25T08:06:39;101392.28;;;-0.24;75.17
70952;BME280;67274;55.810;37.376;2023-01-25T08:09:15;101386.44;;;-0.18;76.17
70952;BME280;67274;55.810;37.376;2023-01-25T08:11:45;101427.25;;;0.10;75.75
70952;BME280;67274;55.810;37.376;2023-01-25T08:14:11;101396.13;;;-0.04;75.82
70952;BME280;67274;55.810;37.376;2023-01-25T08:16:37;101401.00;;;0.02;76.22
70952;BME280;67274;55.810;37.376;2023-01-25T08:19:04;101431.06;;;0.18;76.00
70952;BME280;67274;55.810;37.376;2023-01-25T08:21:33;101428.53;;;0.28;76.38
70952;BME280;67274;55.810;37.376;2023-01-25T08:24:01;101398.84;;;0.18;76.01
70952;BME280;67274;55.810;37.376;2023-01-25T08:26:28;101424.41;;;0.35;76.23
70952;BME280;67274;55.810;37.376;2023-01-25T08:28:55;101393.75;;;0.26;75.25
70952;BME280;67274;55.810;37.376;2023-01-25T08:31:23;101412.34;;;0.41;75.24
70952;BME280;67274;55.810;37.376;2023-01-25T08:33:51;101341.72;;;0.05;75.96
70952;BME280;67274;55.810;37.376;2023-01-25T08:36:18;101393.16;;;0.34;75.50
70952;BME280;67274;55.810;37.376;2023-01-25T08:38:46;101409.06;;;0.48;75.70
70952;BME280;67274;55.810;37.376;2023-01-25T08:41:17;101384.53;;;0.42;75.72
70952;BME280;67274;55.810;37.376;2023-01-25T08:43:45;101411.78;;;0.59;74.84
70952;BME280;67274;55.810;37.376;2023-01-25T08:46:15;101406.78;;;0.66;75.19
70952;BME280;67274;55.810;37.376;2023-01-25T08:48:41;101398.09;;;0.62;75.02
70952;BME280;67274;55.810;37.376;2023-01-25T08:51:08;101362.69;;;0.46;75.58
70952;BME280;67274;55.810;37.376;2023-01-25T08:53:36;101380.88;;;0.65;75.61
70952;BME280;67274;55.810;37.376;2023-01-25T08:56:07;101367.09;;;0.58;75.40
70952;BME280;67274;55.810;37.376;2023-01-25T08:58:34;101379.66;;;0.69;75.25
70952;BME280;67274;55.810;37.376;2023-01-25T09:01:03;101388.09;;;0.76;74.74
70952;BME280;67274;55.810;37.376;2023-01-25T09:03:30;101363.56;;;0.69;75.15
70952;BME280;67274;55.810;37.376;2023-01-25T09:05:56;101366.59;;;0.76;74.83
70952;BME280;67274;55.810;37.376;2023-01-25T09:08:22;101370.63;;;0.70;74.70
70952;BME280;67274;55.810;37.376;2023-01-25T09:10:48;101364.53;;;0.68;74.54
70952;BME280;67274;55.810;37.376;2023-01-25T09:13:14;101372.34;;;0.71;74.97
70952;BME280;67274;55.810;37.376;2023-01-25T09:15:40;101271.59;;;0.21;75.21
70952;BME280;67274;55.810;37.376;2023-01-25T09:18:07;101323.13;;;0.48;75.04
70952;BME280;67274;55.810;37.376;2023-01-25T09:20:33;101294.06;;;0.31;74.40
70952;BME280;67274;55.810;37.376;2023-01-25T09:22:59;101323.00;;;0.50;75.01
70952;BME280;67274;55.810;37.376;2023-01-25T09:25:25;101313.84;;;0.41;74.17
70952;BME280;67274;55.810;37.376;2023-01-25T09:27:52;101320.44;;;0.37;75.24
70952;BME280;67274;55.810;37.376;2023-01-25T09:30:18;101301.75;;;0.24;74.78
70952;BME280;67274;55.810;37.376;2023-01-25T09:32:49;101351.44;;;0.41;74.46
70952;BME280;67274;55.810;37.376;2023-01-25T09:35:16;101332.16;;;0.36;75.66
70952;BME280;67274;55.810;37.376;2023-01-25T09:37:42;101304.78;;;0.20;74.59
70952;BME280;67274;55.810;37.376;2023-01-25T09:40:18;101307.59;;;0.18;75.76
70952;BME280;67274;55.810;37.376;2023-01-25T09:45:30;101318.47;;;0.39;75.51
70952;BME280;67274;55.810;37.376;2023-01-25T09:48:19;101313.84;;;0.41;75.98
70952;BME280;67274;55.810;37.376;2023-01-25T09:50:58;101302.38;;;0.39;75.83
70952;BME280;67274;55.810;37.376;2023-01-25T09:53:41;101265.00;;;0.14;74.98
70952;BME280;67274;55.810;37.376;2023-01-25T09:56:23;101293.72;;;0.36;75.78
70952;BME280;67274;55.810;37.376;2023-01-25T09:58:54;101256.97;;;0.25;75.50
70952;BME280;67274;55.810;37.376;2023-01-25T10:01:43;101279.69;;;0.43;75.64
70952;BME280;67274;55.810;37.376;2023-01-25T10:04:21;101212.06;;;0.05;74.93
70952;BME280;67274;55.810;37.376;2023-01-25T10:06:52;101271.00;;;0.40;75.46
70952;BME280;67274;55.810;37.376;2023-01-25T10:12:18;101243.53;;;0.25;76.16
70952;BME280;67274;55.810;37.376;2023-01-25T10:14:45;101275.41;;;0.41;75.16
70952;BME280;67274;55.810;37.376;2023-01-25T10:20:50;101280.41;;;0.45;75.22
70952;BME280;67274;55.810;37.376;2023-01-25T10:25:58;101280.91;;;0.39;75.92
70952;BME280;67274;55.810;37.376;2023-01-25T10:28:42;101287.84;;;0.42;75.38
70952;BME280;67274;55.810;37.376;2023-01-25T10:31:17;101267.34;;;0.18;75.49
70952;BME280;67274;55.810;37.376;2023-01-25T10:33:46;101279.53;;;0.33;74.59
70952;BME280;67274;55.810;37.376;2023-01-25T10:36:20;101267.59;;;0.26;75.62
70952;BME280;67274;55.810;37.376;2023-01-25T10:38:47;101265.88;;;0.25;74.94
70952;BME280;67274;55.810;37.376;2023-01-25T10:41:24;101262.09;;;0.28;75.57
70952;BME280;67274;55.810;37.376;2023-01-25T10:43:54;101261.84;;;0.31;75.20
70952;BME280;67274;55.810;37.376;2023-01-25T10:46:41;101227.31;;;0.15;75.13
70952;BME280;67274;55.810;37.376;2023-01-25T10:51:44;101245.38;;;0.36;75.22
70952;BME280;67274;55.810;37.376;2023-01-25T10:54:14;101241.34;;;0.41;75.71
70952;BME280;67274;55.810;37.376;2023-01-25T10:56:43;101238.28;;;0.46;74.98
70952;BME280;67274;55.810;37.376;2023-01-25T10:59:20;101247.31;;;0.45;76.09
70952;BME280;67274;55.810;37.376;2023-01-25T11:01:47;101179.75;;;0.06;75.78
70952;BME280;67274;55.810;37.376;2023-01-25T11:04:33;101230.38;;;0.44;75.82
70952;BME280;67274;55.810;37.376;2023-01-25T11:07:01;101210.59;;;0.23;75.62
70952;BME280;67274;55.810;37.376;2023-01-25T11:09:31;101237.94;;;0.39;75.47
70952;BME280;67274;55.810;37.376;2023-01-25T11:12:00;101209.25;;;0.17;74.57
70952;BME280;67274;55.810;37.376;2023-01-25T11:14:30;101200.97;;;0.20;75.15
70952;BME280;67274;55.810;37.376;2023-01-25T11:16:59;101140.00;;;-0.22;74.45
70952;BME280;67274;55.810;37.376;2023-01-25T11:19:39;101219.75;;;0.31;75.07
70952;BME280;67274;55.810;37.376;2023-01-25T11:24:45;101193.53;;;0.13;74.36
70952;BME280;67274;55.810;37.376;2023-01-25T11:30:07;101225.00;;;0.44;75.05
70952;BME280;67274;55.810;37.376;2023-01-25T11:32:34;101218.41;;;0.48;74.05
70952;BME280;67274;55.810;37.376;2023-01-25T11:35:00;101168.25;;;0.26;74.08
70952;BME280;67274;55.810;37.376;2023-01-25T11:37:38;101208.25;;;0.52;72.96
70952;BME280;67274;55.810;37.376;2023-01-25T11:48:49;101194.34;;;0.58;72.75
70952;BME280;67274;55.810;37.376;2023-01-25T11:51:46;101202.03;;;0.51;73.63
70952;BME280;67274;55.810;37.376;2023-01-25T11:59:51;101161.69;;;0.19;73.91
70952;BME280;67274;55.810;37.376;2023-01-25T12:05:31;101157.16;;;0.20;74.36
70952;BME280;67274;55.810;37.376;2023-01-25T12:11:01;101163.50;;;0.30;73.89
70952;BME280;67274;55.810;37.376;2023-01-25T12:14:01;101194.34;;;0.47;73.29
70952;BME280;67274;55.810;37.376;2023-01-25T12:30:57;101085.00;;;-0.06;74.21
70952;BME280;67274;55.810;37.376;2023-01-25T12:33:39;101172.13;;;0.45;73.67
70952;BME280;67274;55.810;37.376;2023-01-25T12:36:27;101110.19;;;0.14;73.49
70952;BME280;67274;55.810;37.376;2023-01-25T12:38:56;101157.63;;;0.36;72.83
70952;BME280;67274;55.810;37.376;2023-01-25T12:44:18;101147.75;;;0.37;74.01
70952;BME280;67274;55.810;37.376;2023-01-25T12:46:53;101128.75;;;0.17;73.31
70952;BME280;67274;55.810;37.376;2023-01-25T12:49:27;101097.66;;;0.04;73.36
70952;BME280;67274;55.810;37.376;2023-01-25T12:51:55;101157.75;;;0.35;73.17
70952;BME280;67274;55.810;37.376;2023-01-25T12:54:36;101128.63;;;0.19;73.96
70952;BME280;67274;55.810;37.376;2023-01-25T12:57:20;101151.66;;;0.32;73.07
70952;BME280;67274;55.810;37.376;2023-01-25T13:13:33;101110.19;;;0.14;73.93
70952;BME280;67274;55.810;37.376;2023-01-25T13:19:41;101087.78;;;0.04;73.83
70952;BME280;67274;55.810;37.376;2023-01-25T13:25:21;101087.66;;;0.06;73.75
70952;BME280;67274;55.810;37.376;2023-01-25T13:27:48;101043.94;;;-0.17;73.60
70952;BME280;67274;55.810;37.376;2023-01-25T13:30:30;101095.81;;;0.15;74.42
70952;BME280;67274;55.810;37.376;2023-01-25T13:33:02;101080.56;;;0.05;74.41
70952;BME280;67274;55.810;37.376;2023-01-25T13:35:37;101087.16;;;0.12;74.46
70952;BME280;67274;55.810;37.376;2023-01-25T13:38:27;101082.75;;;0.11;75.13
70952;BME280;67274;55.810;37.376;2023-01-25T13:41:08;101079.72;;;0.04;74.67
70952;BME280;67274;55.810;37.376;2023-01-25T13:43:42;101064.03;;;-0.01;75.02
70952;BME280;67274;55.810;37.376;2023-01-25T13:46:12;101057.31;;;-0.06;75.03
70952;BME280;67274;55.810;37.376;2023-01-25T13:48:51;101057.44;;;-0.08;74.93
70952;BME280;67274;55.810;37.376;2023-01-25T13:51:19;101067.34;;;-0.08;75.06
70952;BME280;67274;55.810;37.376;2023-01-25T13:53:58;101057.56;;;-0.09;75.53
70952;BME280;67274;55.810;37.376;2023-01-25T13:56:30;101014.94;;;-0.35;75.26
70952;BME280;67274;55.810;37.376;2023-01-25T13:58:56;100957.94;;;-0.70;75.50
70952;BME280;67274;55.810;37.376;2023-01-25T14:01:22;101053.06;;;-0.20;75.69
70952;BME280;67274;55.810;37.376;2023-01-25T14:03:53;100989.38;;;-0.61;74.79
70952;BME280;67274;55.810;37.376;2023-01-25T14:06:26;101024.19;;;-0.39;75.76
70952;BME280;67274;55.810;37.376;2023-01-25T14:08:55;101023.59;;;-0.42;76.06
70952;BME280;67274;55.810;37.376;2023-01-25T14:11:25;101018.59;;;-0.47;74.98
70952;BME280;67274;55.810;37.376;2023-01-25T14:16:25;101053.56;;;-0.26;75.19
70952;BME280;67274;55.810;37.376;2023-01-25T14:18:52;101032.38;;;-0.40;75.86
70952;BME280;67274;55.810;37.376;2023-01-25T14:21:22;101009.94;;;-0.50;75.73
70952;BME280;67274;55.810;37.376;2023-01-25T14:24:35;101009.09;;;-0.40;75.75
70952;BME280;67274;55.810;37.376;2023-01-25T14:27:19;100981.06;;;-0.58;76.13
70952;BME280;67274;55.810;37.376;2023-01-25T14:29:49;101025.78;;;-0.36;76.02
70952;BME280;67274;55.810;37.376;2023-01-25T14:32:26;101051.63;;;-0.24;75.98
70952;BME280;67274;55.810;37.376;2023-01-25T14:34:52;101049.19;;;-0.27;75.35
70952;BME280;67274;55.810;37.376;2023-01-25T14:37:20;100979.97;;;-0.67;75.93
70952;BME280;67274;55.810;37.376;2023-01-25T14:39:48;100988.38;;;-0.60;75.43